Time;durP1;ratioP1;P1;durP2;ratioP2;P2;SDS_P1;SDS_P2;PMS_P1;PMS_P2;Temp;Humidity;BMP_temperature;BMP_pressure;BME280_temperature;BME280_humidity;BME280_pressure;Samples;Min_cycle;Max_cycle;Signal;HPM_P1;HPM_P2
2021/12/17 00:04:36;;;;;;;21.77;16.30;;;;;;;;;;5075821;28;20254;-73
2021/12/17 00:07:12;;;;;;;22.87;16.20;;;;;;;;;;5071350;28;20185;-71
2021/12/17 00:09:38;;;;;;;17.67;14.50;;;;;;;;;;5083082;28;20653;-71
2021/12/17 00:12:04;;;;;;;17.33;14.03;;;;;;;;;;5067291;28;20289;-71
2021/12/17 00:14:36;;;;;;;18.77;14.20;;;;;;;;;;5070292;28;20307;-71
2021/12/17 00:17:04;;;;;;;16.77;12.87;;;;;;;;;;5073807;28;20185;-72
2021/12/17 00:48:56;;;;;;;13.03;9.17;;;;;;;;;;5082076;22;20285;-77
2021/12/17 00:53:59;;;;;;;11.67;8.83;;;;;;;;;;5075298;28;20192;-77
2021/12/17 00:56:24;;;;;;;11.83;8.43;;;;;;;;;;5080307;28;20534;-75
2021/12/17 00:58:49;;;;;;;12.93;8.83;;;;;;;;;;5068021;28;20208;-75
2021/12/17 01:01:16;;;;;;;12.03;8.90;;;;;;;;;;5075990;28;20187;-77
2021/12/17 01:03:41;;;;;;;11.27;8.27;;;;;;;;;;5074948;28;20208;-76
2021/12/17 01:06:06;;;;;;;12.30;8.60;;;;;;;;;;5070240;28;20797;-77
2021/12/17 01:08:32;;;;;;;15.57;9.33;;;;;;;;;;5071599;28;20196;-76
2021/12/17 01:10:57;;;;;;;13.33;8.77;;;;;;;;;;5081461;28;20212;-75
2021/12/17 01:13:23;;;;;;;11.43;8.53;;;;;;;;;;5074071;28;20181;-76
2021/12/17 01:15:48;;;;;;;11.80;8.23;;;;;;;;;;5052996;28;20267;-76
2021/12/17 01:18:16;;;;;;;12.60;8.60;;;;;;;;;;5062548;28;20585;-76
2021/12/17 01:21:07;;;;;;;15.43;8.93;;;;;;;;;;5069199;28;20264;-77
2021/12/17 01:36:36;;;;;;;18.30;9.83;;;;;;;;;;5067235;28;20187;-75
2021/12/17 01:44:16;;;;;;;16.63;9.00;;;;;;;;;;5072270;28;20270;-75
2021/12/17 01:46:42;;;;;;;16.20;8.83;;;;;;;;;;5046623;28;20211;-77
2021/12/17 01:59:49;;;;;;;15.57;7.87;;;;;;;;;;5073403;28;20560;-76
2021/12/17 02:02:14;;;;;;;16.83;9.20;;;;;;;;;;5071439;28;20176;-77
2021/12/17 02:04:40;;;;;;;14.00;7.97;;;;;;;;;;5070659;28;20662;-77
2021/12/17 02:07:05;;;;;;;22.77;9.60;;;;;;;;;;5058100;28;20633;-77
2021/12/17 02:12:36;;;;;;;16.80;8.37;;;;;;;;;;5076689;28;20261;-77
2021/12/17 02:20:38;;;;;;;16.63;8.27;;;;;;;;;;5069696;28;20181;-76
2021/12/17 02:28:41;;;;;;;17.87;9.07;;;;;;;;;;5080757;28;20627;-75
2021/12/17 02:28:49;;;;;;;16.90;9.23;;;;;;;;;;5068492;28;20251;-78
2021/12/17 02:34:49;;;;;;;20.00;9.80;;;;;;;;;;5057366;28;20242;-76
2021/12/17 02:37:03;;;;;;;16.87;9.10;;;;;;;;;;5068037;28;20609;-76
2021/12/17 02:47:36;;;;;;;20.67;10.30;;;;;;;;;;5061526;28;20199;-75
2021/12/17 02:50:01;;;;;;;21.77;10.90;;;;;;;;;;5070274;28;20641;-76
2021/12/17 02:52:27;;;;;;;21.43;10.73;;;;;;;;;;5083801;28;20626;-76
2021/12/17 02:54:53;;;;;;;21.10;10.20;;;;;;;;;;5062168;28;20264;-76
2021/12/17 02:57:19;;;;;;;24.07;11.63;;;;;;;;;;5049423;28;20644;-74
2021/12/17 02:59:44;;;;;;;27.17;12.17;;;;;;;;;;5073364;28;20197;-78
2021/12/17 03:02:10;;;;;;;23.03;11.07;;;;;;;;;;5062000;28;20196;-76
2021/12/17 03:04:37;;;;;;;23.63;10.93;;;;;;;;;;5071352;28;20188;-77
2021/12/17 03:07:03;;;;;;;25.40;13.50;;;;;;;;;;5051194;28;20184;-77
2021/12/17 03:12:09;;;;;;;25.70;12.03;;;;;;;;;;5064035;28;20612;-76
2021/12/17 03:14:41;;;;;;;22.83;12.07;;;;;;;;;;5062250;28;20200;-77
2021/12/17 03:17:10;;;;;;;26.40;13.03;;;;;;;;;;5063765;28;20642;-77
2021/12/17 03:25:03;;;;;;;25.00;12.47;;;;;;;;;;5077546;28;20207;-78
2021/12/17 03:27:29;;;;;;;27.87;14.07;;;;;;;;;;5064160;28;20169;-77
2021/12/17 03:29:54;;;;;;;27.80;13.37;;;;;;;;;;5063953;28;20649;-77
2021/12/17 03:32:19;;;;;;;29.20;14.00;;;;;;;;;;5068736;28;20187;-77
2021/12/17 03:34:44;;;;;;;31.00;13.50;;;;;;;;;;5073087;28;20180;-77
2021/12/17 03:37:10;;;;;;;30.87;14.10;;;;;;;;;;5062940;28;20267;-77
2021/12/17 03:39:37;;;;;;;26.77;13.73;;;;;;;;;;5062634;28;20657;-77
2021/12/17 03:42:06;;;;;;;31.73;13.77;;;;;;;;;;5056475;28;20618;-77
2021/12/17 03:44:32;;;;;;;37.70;15.73;;;;;;;;;;5072073;28;20205;-77
2021/12/17 03:46:57;;;;;;;28.80;14.20;;;;;;;;;;5075359;28;20196;-77
2021/12/17 03:49:23;;;;;;;32.73;14.83;;;;;;;;;;5070718;28;20208;-79
2021/12/17 03:52:09;;;;;;;34.67;14.93;;;;;;;;;;5071100;28;20571;-75
2021/12/17 03:54:34;;;;;;;31.13;13.80;;;;;;;;;;5068895;28;20197;-76
2021/12/17 03:57:00;;;;;;;35.10;14.93;;;;;;;;;;5076550;28;20243;-76
2021/12/17 03:59:26;;;;;;;37.37;15.00;;;;;;;;;;5070690;28;20933;-75
2021/12/17 04:01:51;;;;;;;32.20;14.90;;;;;;;;;;5062271;28;20193;-75
2021/12/17 04:04:16;;;;;;;31.87;14.90;;;;;;;;;;5056055;28;20196;-76
2021/12/17 04:06:41;;;;;;;33.40;14.73;;;;;;;;;;5076181;28;20191;-76
2021/12/17 04:09:08;;;;;;;36.03;15.23;;;;;;;;;;5074102;28;20184;-76
2021/12/17 04:11:33;;;;;;;31.97;14.97;;;;;;;;;;5077008;28;20226;-76
2021/12/17 04:13:59;;;;;;;33.37;15.30;;;;;;;;;;5069947;28;20639;-76
2021/12/17 04:16:26;;;;;;;33.63;15.90;;;;;;;;;;5075254;28;20185;-76
2021/12/17 04:18:51;;;;;;;36.87;16.40;;;;;;;;;;5079339;28;20201;-75
2021/12/17 04:21:17;;;;;;;34.60;16.43;;;;;;;;;;5059145;28;20666;-75
2021/12/17 04:23:43;;;;;;;36.33;15.93;;;;;;;;;;5069908;28;20197;-76
2021/12/17 04:26:08;;;;;;;31.73;15.40;;;;;;;;;;5075201;28;20173;-76
2021/12/17 04:28:36;;;;;;;36.50;16.37;;;;;;;;;;5055942;28;20201;-75
2021/12/17 04:31:02;;;;;;;37.17;17.83;;;;;;;;;;5057893;28;20205;-76
2021/12/17 04:33:27;;;;;;;45.93;22.30;;;;;;;;;;5071351;28;20207;-75
2021/12/17 04:35:52;;;;;;;43.07;20.73;;;;;;;;;;5066944;28;20580;-76
2021/12/17 04:38:18;;;;;;;39.37;20.43;;;;;;;;;;5077543;28;20193;-77
2021/12/17 04:40:44;;;;;;;48.13;21.43;;;;;;;;;;5059522;28;20378;-77
2021/12/17 04:43:16;;;;;;;44.73;24.10;;;;;;;;;;5069901;28;20169;-75
2021/12/17 04:46:02;;;;;;;49.37;21.67;;;;;;;;;;5082058;28;20192;-77
2021/12/17 04:59:22;;;;;;;53.00;22.77;;;;;;;;;;5070460;28;20262;-77
2021/12/17 05:01:48;;;;;;;46.13;22.10;;;;;;;;;;5077913;28;20180;-77
2021/12/17 05:04:13;;;;;;;47.00;23.00;;;;;;;;;;5071193;28;20577;-77
2021/12/17 05:06:39;;;;;;;48.73;24.27;;;;;;;;;;5072364;28;20181;-77
2021/12/17 05:09:11;;;;;;;50.87;23.43;;;;;;;;;;5071158;28;20284;-77
2021/12/17 05:19:49;;;;;;;53.23;23.10;;;;;;;;;;5078958;28;20223;-75
2021/12/17 05:22:14;;;;;;;47.30;22.37;;;;;;;;;;5061450;28;20187;-75
2021/12/17 05:24:40;;;;;;;45.00;19.93;;;;;;;;;;5069083;28;20197;-77
2021/12/17 05:27:05;;;;;;;42.80;19.07;;;;;;;;;;5073247;28;20629;-77
2021/12/17 05:29:30;;;;;;;43.80;19.80;;;;;;;;;;5081143;28;20196;-77
2021/12/17 05:31:56;;;;;;;42.37;20.47;;;;;;;;;;5077288;28;20188;-77
2021/12/17 05:34:21;;;;;;;36.80;19.17;;;;;;;;;;5074719;28;20625;-77
2021/12/17 05:36:46;;;;;;;30.77;14.93;;;;;;;;;;5080733;28;20626;-77
2021/12/17 05:39:11;;;;;;;22.33;12.27;;;;;;;;;;5065956;28;20196;-76
2021/12/17 05:41:36;;;;;;;24.83;12.50;;;;;;;;;;5076481;28;20184;-76
2021/12/17 05:44:01;;;;;;;27.60;13.10;;;;;;;;;;5066398;28;20221;-75
2021/12/17 05:49:22;;;;;;;23.23;12.03;;;;;;;;;;5045587;28;20730;-75
2021/12/17 05:51:48;;;;;;;21.43;11.73;;;;;;;;;;5077124;28;20173;-75
2021/12/17 05:54:13;;;;;;;20.80;11.97;;;;;;;;;;5064267;28;20184;-75
2021/12/17 05:56:39;;;;;;;22.73;12.43;;;;;;;;;;5078760;28;20180;-76
2021/12/17 05:59:06;;;;;;;23.93;11.70;;;;;;;;;;5056671;28;20648;-76
2021/12/17 06:01:31;;;;;;;21.17;11.67;;;;;;;;;;5078260;28;20172;-75
2021/12/17 06:03:56;;;;;;;22.10;12.23;;;;;;;;;;5063543;28;20665;-76
2021/12/17 06:06:45;;;;;;;20.00;11.17;;;;;;;;;;5074354;28;20184;-76
2021/12/17 06:09:11;;;;;;;22.33;11.87;;;;;;;;;;5078711;28;20193;-76
2021/12/17 06:11:36;;;;;;;25.47;11.60;;;;;;;;;;5079532;28;20175;-76
2021/12/17 06:14:01;;;;;;;21.57;11.70;;;;;;;;;;5078992;28;20708;-76
2021/12/17 06:16:27;;;;;;;24.23;11.37;;;;;;;;;;5071616;28;20194;-76
2021/12/17 06:18:52;;;;;;;23.77;11.67;;;;;;;;;;5058607;28;20287;-75
2021/12/17 06:21:19;;;;;;;21.40;11.37;;;;;;;;;;5062306;28;20177;-75
2021/12/17 06:23:44;;;;;;;24.90;11.40;;;;;;;;;;5071911;28;20685;-75
2021/12/17 06:26:09;;;;;;;21.87;10.73;;;;;;;;;;5062856;28;20254;-75
2021/12/17 06:28:34;;;;;;;24.80;11.30;;;;;;;;;;5062555;28;20234;-75
2021/12/17 06:31:00;;;;;;;22.03;10.43;;;;;;;;;;5054970;28;20230;-76
2021/12/17 06:33:25;;;;;;;21.80;10.63;;;;;;;;;;5063127;28;20549;-75
2021/12/17 06:35:50;;;;;;;19.97;10.20;;;;;;;;;;5062477;28;20187;-76
2021/12/17 06:38:15;;;;;;;17.37;9.33;;;;;;;;;;5062366;28;20200;-76
2021/12/17 06:40:40;;;;;;;18.63;10.63;;;;;;;;;;5061142;28;20720;-76
2021/12/17 06:43:06;;;;;;;22.27;11.67;;;;;;;;;;5063730;28;20189;-75
2021/12/17 06:45:51;;;;;;;21.70;11.30;;;;;;;;;;5062257;28;20197;-78
2021/12/17 06:48:21;;;;;;;18.70;11.77;;;;;;;;;;5070385;22;20223;-73
2021/12/17 06:59:11;;;;;;;19.80;10.13;;;;;;;;;;5050871;28;20740;-73
2021/12/17 07:17:42;;;;;;;18.70;9.40;;;;;;;;;;5053815;28;20216;-72
2021/12/17 07:28:27;;;;;;;16.77;8.60;;;;;;;;;;5050474;28;20236;-72
2021/12/17 07:33:40;;;;;;;14.20;9.13;;;;;;;;;;5052876;28;20652;-72
2021/12/17 07:36:12;;;;;;;17.57;9.77;;;;;;;;;;5052041;28;20626;-72
2021/12/17 07:38:40;;;;;;;16.20;9.67;;;;;;;;;;5051236;28;20198;-73
2021/12/17 07:41:06;;;;;;;17.10;10.10;;;;;;;;;;5040575;28;20177;-72
2021/12/17 07:46:04;;;;;;;16.87;8.57;;;;;;;;;;5052981;28;20204;-73
2021/12/17 07:48:30;;;;;;;15.20;8.50;;;;;;;;;;5047509;28;20275;-70
2021/12/17 07:50:55;;;;;;;13.43;7.03;;;;;;;;;;5053280;28;20173;-69
2021/12/17 07:53:20;;;;;;;16.27;7.43;;;;;;;;;;5044059;28;20190;-70
2021/12/17 07:55:45;;;;;;;11.83;6.70;;;;;;;;;;5052613;28;20219;-69
2021/12/17 07:58:11;;;;;;;11.23;6.57;;;;;;;;;;5053628;28;20700;-69
2021/12/17 08:00:36;;;;;;;12.73;7.10;;;;;;;;;;5058598;28;20177;-70
2021/12/17 08:03:02;;;;;;;14.30;7.57;;;;;;;;;;5056946;28;20172;-70
2021/12/17 08:05:27;;;;;;;12.43;7.47;;;;;;;;;;5053194;28;20217;-70
2021/12/17 08:07:52;;;;;;;13.40;6.43;;;;;;;;;;5037829;28;20184;-69
2021/12/17 08:10:17;;;;;;;11.27;7.00;;;;;;;;;;5056720;28;20678;-70
2021/12/17 08:12:43;;;;;;;17.53;7.70;;;;;;;;;;5038074;28;20173;-70
2021/12/17 08:15:10;;;;;;;10.83;6.70;;;;;;;;;;5056514;28;20185;-68
2021/12/17 08:17:50;;;;;;;11.13;6.77;;;;;;;;;;5054968;28;20182;-69
2021/12/17 08:28:25;;;;;;;15.20;8.20;;;;;;;;;;5056518;28;20255;-70
2021/12/17 08:30:50;;;;;;;12.33;7.10;;;;;;;;;;5046102;28;20189;-70
2021/12/17 08:33:19;;;;;;;14.23;7.87;;;;;;;;;;5052663;28;20194;-69
2021/12/17 08:35:45;;;;;;;12.53;7.17;;;;;;;;;;5057910;28;20181;-70
2021/12/17 08:38:10;;;;;;;11.73;6.67;;;;;;;;;;5055986;28;20564;-70
2021/12/17 08:40:35;;;;;;;12.70;7.43;;;;;;;;;;5044221;28;20174;-70
2021/12/17 08:43:01;;;;;;;12.50;6.77;;;;;;;;;;5053453;28;20557;-69
2021/12/17 08:45:26;;;;;;;12.33;7.77;;;;;;;;;;5056252;28;20647;-70
2021/12/17 08:47:52;;;;;;;13.53;6.93;;;;;;;;;;5047524;28;20222;-69
2021/12/17 08:50:19;;;;;;;12.63;6.80;;;;;;;;;;5050975;28;20227;-69
2021/12/17 08:52:44;;;;;;;14.57;8.27;;;;;;;;;;5053754;28;20173;-70
2021/12/17 08:55:10;;;;;;;14.97;7.77;;;;;;;;;;5041365;28;20189;-70
2021/12/17 08:57:36;;;;;;;11.97;6.83;;;;;;;;;;5057193;28;20196;-69
2021/12/17 09:00:06;;;;;;;12.80;7.33;;;;;;;;;;5055714;28;20724;-69
2021/12/17 09:02:33;;;;;;;11.40;7.07;;;;;;;;;;5049827;28;20178;-70
2021/12/17 09:04:58;;;;;;;12.90;7.97;;;;;;;;;;5048160;28;20213;-70
2021/12/17 09:07:24;;;;;;;12.13;7.30;;;;;;;;;;5062031;28;20181;-69
2021/12/17 09:09:49;;;;;;;13.20;7.83;;;;;;;;;;5060494;28;20821;-70
2021/12/17 09:12:14;;;;;;;12.27;7.33;;;;;;;;;;5058815;28;20177;-70
2021/12/17 09:14:39;;;;;;;13.13;7.67;;;;;;;;;;5051576;28;20591;-70
2021/12/17 09:17:05;;;;;;;10.67;6.83;;;;;;;;;;5055111;28;20188;-70
2021/12/17 09:19:30;;;;;;;10.50;6.13;;;;;;;;;;5051614;28;20205;-70
2021/12/17 09:21:55;;;;;;;12.20;7.17;;;;;;;;;;5052362;28;20208;-70
2021/12/17 09:24:20;;;;;;;9.33;5.87;;;;;;;;;;5041369;28;20198;-70
2021/12/17 09:26:46;;;;;;;9.03;5.50;;;;;;;;;;5054856;28;20174;-69
2021/12/17 09:29:11;;;;;;;7.67;5.17;;;;;;;;;;5061770;28;20200;-69
2021/12/17 09:31:36;;;;;;;9.10;5.40;;;;;;;;;;5058896;28;20172;-70
2021/12/17 09:34:02;;;;;;;8.07;5.67;;;;;;;;;;5059110;28;20181;-69
2021/12/17 09:36:27;;;;;;;10.33;7.37;;;;;;;;;;5051637;28;20181;-68
2021/12/17 09:38:53;;;;;;;8.70;5.20;;;;;;;;;;5055446;28;20540;-70
2021/12/17 09:41:22;;;;;;;8.93;6.07;;;;;;;;;;5051168;28;20189;-69
2021/12/17 09:43:47;;;;;;;5.87;3.63;;;;;;;;;;5052629;28;20284;-70
2021/12/17 09:46:12;;;;;;;5.37;3.90;;;;;;;;;;5057826;28;20264;-70
2021/12/17 09:48:38;;;;;;;8.10;5.77;;;;;;;;;;5045360;28;20205;-70
2021/12/17 09:51:04;;;;;;;9.87;7.17;;;;;;;;;;5051471;28;20544;-70
2021/12/17 09:53:30;;;;;;;7.87;6.03;;;;;;;;;;5033996;28;20268;-70
2021/12/17 09:55:56;;;;;;;7.17;4.90;;;;;;;;;;5051265;28;20264;-70
2021/12/17 09:58:21;;;;;;;6.23;4.20;;;;;;;;;;5055082;28;20201;-69
2021/12/17 10:00:47;;;;;;;9.73;4.20;;;;;;;;;;5056682;28;20298;-70
2021/12/17 10:03:12;;;;;;;7.87;4.60;;;;;;;;;;5054320;28;20311;-70
2021/12/17 10:05:38;;;;;;;6.40;4.33;;;;;;;;;;5054570;28;20319;-70
2021/12/17 10:08:05;;;;;;;9.93;6.10;;;;;;;;;;5051702;28;20204;-70
2021/12/17 10:10:33;;;;;;;6.87;5.30;;;;;;;;;;5065967;28;20173;-68
2021/12/17 10:13:07;;;;;;;5.17;3.33;;;;;;;;;;5066421;28;20728;-70
2021/12/17 10:15:34;;;;;;;5.30;3.43;;;;;;;;;;5055492;28;20248;-70
2021/12/17 10:18:03;;;;;;;6.33;3.43;;;;;;;;;;5058881;28;20577;-70
2021/12/17 10:20:39;;;;;;;4.30;3.57;;;;;;;;;;5033160;28;20639;-70
2021/12/17 10:23:08;;;;;;;5.00;3.30;;;;;;;;;;5048077;28;20200;-69
2021/12/17 10:25:34;;;;;;;6.13;3.87;;;;;;;;;;5049382;28;20565;-69
2021/12/17 10:28:03;;;;;;;6.37;4.70;;;;;;;;;;5034038;28;20573;-69
2021/12/17 10:30:29;;;;;;;6.00;3.53;;;;;;;;;;5053558;28;20169;-69
2021/12/17 10:32:56;;;;;;;6.90;4.30;;;;;;;;;;5052150;28;20170;-69
2021/12/17 10:35:25;;;;;;;7.93;4.80;;;;;;;;;;5055428;28;20209;-69
2021/12/17 10:37:56;;;;;;;6.13;3.93;;;;;;;;;;5059018;28;20265;-70
2021/12/17 10:40:22;;;;;;;6.83;4.90;;;;;;;;;;5050563;28;20200;-70
2021/12/17 10:43:02;;;;;;;5.53;4.03;;;;;;;;;;5061399;28;20185;-70
2021/12/17 10:45:30;;;;;;;5.93;5.27;;;;;;;;;;5058617;28;20288;-69
2021/12/17 10:48:20;;;;;;;5.37;4.10;;;;;;;;;;5060103;28;20232;-70
2021/12/17 10:50:46;;;;;;;6.70;3.83;;;;;;;;;;5062575;28;20187;-70
2021/12/17 10:53:11;;;;;;;7.20;3.50;;;;;;;;;;5055307;28;20272;-69
2021/12/17 10:55:36;;;;;;;5.43;3.27;;;;;;;;;;5067246;28;20181;-69
2021/12/17 10:58:02;;;;;;;5.37;3.57;;;;;;;;;;5058656;28;20284;-69
2021/12/17 11:00:28;;;;;;;7.13;4.53;;;;;;;;;;5063799;28;20256;-70
2021/12/17 11:02:53;;;;;;;5.87;4.30;;;;;;;;;;5058754;28;20264;-70
2021/12/17 11:05:19;;;;;;;6.03;3.70;;;;;;;;;;5038500;28;20249;-70
2021/12/17 11:07:45;;;;;;;6.47;4.23;;;;;;;;;;5059852;28;20200;-70
2021/12/17 11:10:10;;;;;;;5.80;3.73;;;;;;;;;;5052005;28;20652;-69
2021/12/17 11:12:36;;;;;;;5.17;4.17;;;;;;;;;;5051617;28;20170;-68
2021/12/17 11:15:20;;;;;;;6.40;3.77;;;;;;;;;;5054339;28;20185;-70
2021/12/17 11:17:52;;;;;;;5.57;4.33;;;;;;;;;;5066442;28;20626;-70
2021/12/17 11:20:17;;;;;;;6.53;3.77;;;;;;;;;;5055336;28;20289;-70
2021/12/17 11:22:44;;;;;;;5.57;3.83;;;;;;;;;;5061209;28;20908;-70
2021/12/17 11:25:09;;;;;;;5.50;3.50;;;;;;;;;;5055785;28;20729;-69
2021/12/17 11:27:34;;;;;;;7.47;4.07;;;;;;;;;;5067462;28;20264;-69
2021/12/17 11:30:01;;;;;;;6.23;3.83;;;;;;;;;;5060755;28;20199;-70
2021/12/17 11:32:26;;;;;;;5.73;4.33;;;;;;;;;;5064346;28;20260;-70
2021/12/17 11:34:52;;;;;;;5.57;3.90;;;;;;;;;;5051777;28;20273;-70
2021/12/17 11:37:18;;;;;;;5.27;3.73;;;;;;;;;;5062505;28;20190;-70
2021/12/17 11:39:51;;;;;;;6.93;3.83;;;;;;;;;;5056909;28;20251;-70
2021/12/17 11:42:33;;;;;;;6.40;4.10;;;;;;;;;;5054373;28;20718;-69
2021/12/17 11:47:44;;;;;;;6.27;4.40;;;;;;;;;;5048669;28;20181;-70
2021/12/17 11:50:11;;;;;;;6.23;4.60;;;;;;;;;;5034409;28;20603;-70
2021/12/17 11:52:39;;;;;;;7.30;4.73;;;;;;;;;;5038276;28;20596;-69
2021/12/17 11:55:20;;;;;;;7.67;4.57;;;;;;;;;;5046008;28;20794;-70
2021/12/17 11:57:45;;;;;;;8.97;5.70;;;;;;;;;;5052053;28;20201;-69
2021/12/17 12:00:14;;;;;;;5.77;4.90;;;;;;;;;;5040417;28;20213;-69
2021/12/17 12:02:46;;;;;;;6.60;4.67;;;;;;;;;;5039026;28;20560;-69
2021/12/17 12:05:25;;;;;;;6.23;4.43;;;;;;;;;;5035840;28;20197;-70
2021/12/17 12:07:50;;;;;;;5.63;4.10;;;;;;;;;;5052091;28;20239;-70
2021/12/17 12:10:21;;;;;;;5.83;3.90;;;;;;;;;;5052828;28;20635;-70
2021/12/17 12:12:49;;;;;;;6.00;4.57;;;;;;;;;;5049880;28;20173;-70
2021/12/17 12:18:03;;;;;;;5.77;4.60;;;;;;;;;;5043929;28;20181;-70
2021/12/17 12:20:47;;;;;;;6.53;4.63;;;;;;;;;;5067486;28;20177;-70
2021/12/17 12:23:14;;;;;;;6.83;5.30;;;;;;;;;;5050780;28;20188;-69
2021/12/17 12:25:40;;;;;;;6.97;4.93;;;;;;;;;;5048941;28;20198;-69
2021/12/17 12:28:06;;;;;;;8.40;5.20;;;;;;;;;;5049116;28;20314;-69
2021/12/17 12:30:39;;;;;;;8.67;6.00;;;;;;;;;;5048714;28;20655;-70
2021/12/17 12:33:08;;;;;;;8.67;5.20;;;;;;;;;;5048141;28;20166;-70
2021/12/17 12:35:33;;;;;;;8.50;5.27;;;;;;;;;;5061452;28;20203;-70
2021/12/17 12:38:19;;;;;;;8.37;4.73;;;;;;;;;;5049705;28;20638;-69
2021/12/17 12:40:52;;;;;;;6.83;5.17;;;;;;;;;;5051652;28;20178;-70
2021/12/17 12:43:24;;;;;;;6.57;4.53;;;;;;;;;;5031273;28;20255;-69
2021/12/17 12:45:49;;;;;;;6.87;4.70;;;;;;;;;;5060257;28;20215;-70
2021/12/17 12:48:27;;;;;;;6.47;4.60;;;;;;;;;;5062911;22;20276;-73
2021/12/17 12:51:11;;;;;;;5.33;4.83;;;;;;;;;;5053049;28;20208;-73
2021/12/17 12:53:36;;;;;;;7.87;5.50;;;;;;;;;;5034165;28;20180;-73
2021/12/17 12:56:06;;;;;;;7.73;5.00;;;;;;;;;;5036383;28;20548;-74
2021/12/17 12:58:33;;;;;;;5.70;4.33;;;;;;;;;;5035563;28;20198;-73
2021/12/17 13:01:01;;;;;;;5.30;4.27;;;;;;;;;;5022391;28;20675;-73
2021/12/17 13:03:28;;;;;;;7.43;4.70;;;;;;;;;;5034433;28;20260;-74
2021/12/17 13:05:55;;;;;;;6.07;4.27;;;;;;;;;;5049245;28;20213;-73
2021/12/17 13:08:22;;;;;;;6.00;3.63;;;;;;;;;;5033330;28;20197;-73
2021/12/17 13:10:54;;;;;;;4.13;3.30;;;;;;;;;;5043093;28;20216;-73
2021/12/17 13:16:43;;;;;;;4.77;3.40;;;;;;;;;;5043617;28;20185;-73
2021/12/17 13:24:20;;;;;;;3.70;2.87;;;;;;;;;;5039629;28;20205;-73
2021/12/17 13:26:44;;;;;;;6.30;4.10;;;;;;;;;;5041587;28;20251;-74
2021/12/17 13:29:14;;;;;;;6.30;3.77;;;;;;;;;;5041949;28;20280;-74
2021/12/17 13:31:43;;;;;;;3.87;3.40;;;;;;;;;;5043604;28;20172;-73
2021/12/17 13:34:20;;;;;;;5.83;4.10;;;;;;;;;;5040915;28;20408;-73
2021/12/17 13:36:57;;;;;;;5.97;4.43;;;;;;;;;;5042324;28;20181;-73
2021/12/17 13:39:25;;;;;;;6.07;4.30;;;;;;;;;;5041647;28;20766;-73
2021/12/17 13:41:51;;;;;;;7.40;6.20;;;;;;;;;;5038052;28;20647;-73
2021/12/17 13:44:25;;;;;;;7.17;5.73;;;;;;;;;;5042110;28;20201;-74
2021/12/17 13:46:52;;;;;;;9.87;6.20;;;;;;;;;;5040041;28;20215;-74
2021/12/17 13:49:19;;;;;;;5.37;4.13;;;;;;;;;;5041389;28;20611;-73
2021/12/17 13:51:45;;;;;;;5.63;4.20;;;;;;;;;;5046392;28;20243;-76
2021/12/17 13:54:10;;;;;;;4.47;3.93;;;;;;;;;;5034066;28;20662;-74
2021/12/17 13:56:35;;;;;;;7.10;4.63;;;;;;;;;;5040564;28;20181;-74
2021/12/17 13:59:07;;;;;;;3.63;3.17;;;;;;;;;;5049989;28;20607;-74
2021/12/17 14:01:35;;;;;;;4.57;3.53;;;;;;;;;;5050731;28;22467;-74
2021/12/17 14:04:00;;;;;;;3.90;3.37;;;;;;;;;;5051873;28;20256;-74
2021/12/17 14:06:28;;;;;;;3.73;3.03;;;;;;;;;;5048166;28;20252;-74
2021/12/17 14:08:54;;;;;;;3.40;2.90;;;;;;;;;;5050518;28;20633;-73
2021/12/17 14:11:24;;;;;;;3.47;2.97;;;;;;;;;;5049844;28;20181;-74
2021/12/17 14:13:49;;;;;;;3.77;3.10;;;;;;;;;;5051899;28;20185;-74
2021/12/17 14:16:25;;;;;;;3.83;3.20;;;;;;;;;;5055990;28;20536;-75
2021/12/17 14:18:55;;;;;;;3.93;3.20;;;;;;;;;;5053020;28;20219;-75
2021/12/17 14:21:27;;;;;;;3.80;3.00;;;;;;;;;;5050217;28;20669;-75
2021/12/17 14:23:52;;;;;;;4.10;3.17;;;;;;;;;;5052227;28;20174;-75
2021/12/17 14:26:17;;;;;;;4.30;3.03;;;;;;;;;;5047936;28;20191;-75
2021/12/17 14:28:42;;;;;;;3.83;3.30;;;;;;;;;;5049535;28;20216;-75
2021/12/17 14:31:17;;;;;;;4.33;3.30;;;;;;;;;;5044429;28;20269;-74
2021/12/17 14:33:43;;;;;;;4.67;3.60;;;;;;;;;;5051629;28;20196;-74
2021/12/17 14:36:14;;;;;;;4.33;2.93;;;;;;;;;;5050135;28;20183;-74
2021/12/17 14:38:40;;;;;;;3.50;3.20;;;;;;;;;;5052469;28;20606;-74
2021/12/17 14:41:07;;;;;;;4.47;3.23;;;;;;;;;;5050114;28;20616;-75
2021/12/17 14:43:32;;;;;;;3.40;3.10;;;;;;;;;;5047768;28;20215;-75
2021/12/17 14:46:09;;;;;;;3.53;2.80;;;;;;;;;;5049679;28;20173;-75
2021/12/17 14:48:42;;;;;;;4.57;3.60;;;;;;;;;;5049198;28;20212;-74
2021/12/17 15:02:38;;;;;;;6.83;3.97;;;;;;;;;;5050153;28;20184;-75
2021/12/17 15:04:59;;;;;;;4.80;3.40;;;;;;;;;;5052922;28;20665;-74
2021/12/17 15:07:26;;;;;;;4.50;3.53;;;;;;;;;;5051520;28;20181;-73
2021/12/17 15:09:51;;;;;;;4.87;4.10;;;;;;;;;;5039665;28;20205;-74
2021/12/17 15:15:01;;;;;;;7.30;5.50;;;;;;;;;;5038555;28;20273;-74
2021/12/17 15:17:27;;;;;;;7.93;5.63;;;;;;;;;;5048752;28;20202;-74
2021/12/17 15:19:52;;;;;;;9.70;7.20;;;;;;;;;;5036001;28;20186;-74
2021/12/17 15:22:17;;;;;;;11.90;8.83;;;;;;;;;;5046481;28;20182;-74
2021/12/17 15:24:42;;;;;;;12.03;8.57;;;;;;;;;;5040389;28;20631;-73
2021/12/17 15:27:07;;;;;;;11.20;8.27;;;;;;;;;;5035103;28;20174;-74
2021/12/17 15:29:33;;;;;;;6.80;5.43;;;;;;;;;;5041891;28;20204;-74
2021/12/17 15:31:58;;;;;;;6.00;4.80;;;;;;;;;;5035304;28;20624;-74
2021/12/17 15:34:23;;;;;;;6.83;5.70;;;;;;;;;;5036574;28;20239;-74
2021/12/17 15:36:49;;;;;;;6.80;5.73;;;;;;;;;;5034830;28;20190;-74
2021/12/17 15:39:15;;;;;;;8.00;6.23;;;;;;;;;;5037676;28;20205;-75
2021/12/17 15:41:41;;;;;;;7.33;5.60;;;;;;;;;;5032761;28;20644;-75
2021/12/17 15:44:10;;;;;;;5.90;5.23;;;;;;;;;;5036208;28;20273;-74
2021/12/17 15:46:36;;;;;;;6.37;5.30;;;;;;;;;;5032133;28;20636;-74
2021/12/17 15:49:01;;;;;;;7.43;5.73;;;;;;;;;;5033349;28;20197;-74
2021/12/17 15:51:26;;;;;;;7.57;5.23;;;;;;;;;;5037401;28;20626;-74
2021/12/17 15:53:52;;;;;;;7.63;5.67;;;;;;;;;;5038191;28;20233;-75
2021/12/17 15:56:17;;;;;;;7.37;5.57;;;;;;;;;;5038029;28;20181;-72
2021/12/17 15:58:42;;;;;;;7.87;4.63;;;;;;;;;;5039648;28;20205;-73
2021/12/17 16:01:07;;;;;;;6.77;4.73;;;;;;;;;;5038095;28;20231;-73
2021/12/17 16:03:35;;;;;;;5.67;5.00;;;;;;;;;;5034931;28;20228;-75
2021/12/17 16:06:03;;;;;;;6.53;5.33;;;;;;;;;;5031242;28;20181;-74
2021/12/17 16:08:29;;;;;;;7.57;5.60;;;;;;;;;;5037771;28;20637;-74
2021/12/17 16:21:49;;;;;;;7.30;5.43;;;;;;;;;;5037504;28;20189;-75
2021/12/17 16:24:15;;;;;;;7.00;5.67;;;;;;;;;;5035226;28;20166;-74
2021/12/17 16:26:40;;;;;;;7.73;5.77;;;;;;;;;;5033990;28;20179;-74
2021/12/17 16:29:08;;;;;;;7.13;5.57;;;;;;;;;;5031507;28;20666;-74
2021/12/17 16:31:33;;;;;;;7.50;5.87;;;;;;;;;;5037145;28;20264;-74
2021/12/17 16:34:03;;;;;;;7.93;6.53;;;;;;;;;;5032735;28;20741;-74
2021/12/17 16:36:29;;;;;;;9.60;7.43;;;;;;;;;;5037554;28;20173;-74
2021/12/17 16:38:55;;;;;;;9.20;7.07;;;;;;;;;;5041281;28;20213;-74
2021/12/17 16:41:21;;;;;;;8.40;6.50;;;;;;;;;;5038702;28;20643;-73
2021/12/17 16:43:47;;;;;;;9.10;6.40;;;;;;;;;;5037825;28;20399;-73
2021/12/17 16:48:58;;;;;;;9.87;7.50;;;;;;;;;;5048434;28;20225;-74
2021/12/17 16:51:23;;;;;;;8.33;6.67;;;;;;;;;;5037048;28;20174;-74
2021/12/17 16:53:48;;;;;;;9.30;6.40;;;;;;;;;;5033074;28;20208;-73
2021/12/17 16:56:14;;;;;;;7.63;6.00;;;;;;;;;;5034309;28;20174;-74
2021/12/17 16:58:40;;;;;;;8.20;5.70;;;;;;;;;;5038385;28;20209;-74
2021/12/17 17:01:05;;;;;;;6.87;5.80;;;;;;;;;;5029927;28;20790;-74
2021/12/17 17:03:31;;;;;;;7.37;5.43;;;;;;;;;;5031588;28;21094;-74
2021/12/17 17:05:56;;;;;;;7.70;5.00;;;;;;;;;;5043654;28;20665;-74
2021/12/17 17:08:21;;;;;;;10.60;6.53;;;;;;;;;;5039508;28;20300;-74
2021/12/17 17:10:59;;;;;;;7.87;5.63;;;;;;;;;;5034049;28;20174;-74
2021/12/17 17:13:24;;;;;;;9.60;6.60;;;;;;;;;;5036073;28;20177;-74
2021/12/17 17:15:50;;;;;;;9.33;7.00;;;;;;;;;;5036446;28;20566;-73
2021/12/17 17:18:15;;;;;;;9.83;6.33;;;;;;;;;;5037343;28;20218;-74
2021/12/17 17:20:40;;;;;;;7.17;6.23;;;;;;;;;;5033620;28;20201;-73
2021/12/17 17:23:05;;;;;;;8.10;5.63;;;;;;;;;;5034546;28;20174;-74
2021/12/17 17:25:31;;;;;;;8.07;6.60;;;;;;;;;;5038465;28;20173;-74
2021/12/17 17:27:56;;;;;;;10.00;6.90;;;;;;;;;;5035654;28;20182;-74
2021/12/17 17:30:22;;;;;;;13.33;9.23;;;;;;;;;;5034967;28;20259;-74
2021/12/17 17:32:47;;;;;;;10.90;7.83;;;;;;;;;;5034964;28;20180;-74
2021/12/17 17:35:13;;;;;;;9.60;7.53;;;;;;;;;;5035796;28;20675;-74
2021/12/17 17:37:38;;;;;;;11.10;7.60;;;;;;;;;;5033026;28;20198;-74
2021/12/17 17:40:08;;;;;;;11.13;7.90;;;;;;;;;;5031341;28;20245;-74
2021/12/17 17:42:33;;;;;;;13.97;8.10;;;;;;;;;;5036139;28;20193;-75
2021/12/17 17:44:58;;;;;;;13.87;9.00;;;;;;;;;;5036863;28;20921;-72
2021/12/17 17:47:23;;;;;;;14.33;10.00;;;;;;;;;;5033763;28;20173;-72
2021/12/17 17:49:50;;;;;;;14.80;8.97;;;;;;;;;;5033554;28;20201;-73
2021/12/17 17:52:15;;;;;;;14.73;8.63;;;;;;;;;;5036552;28;20551;-75
2021/12/17 17:54:41;;;;;;;14.63;9.40;;;;;;;;;;5034537;28;20185;-76
2021/12/17 17:57:06;;;;;;;19.17;10.70;;;;;;;;;;5037968;28;20759;-75
2021/12/17 17:59:31;;;;;;;16.33;10.97;;;;;;;;;;5035486;28;20190;-74